Time;durP1;ratioP1;P1;durP2;ratioP2;P2;SDS_P1;SDS_P2;PMS_P1;PMS_P2;Temp;Humidity;BMP_temperature;BMP_pressure;BME280_temperature;BME280_humidity;BME280_pressure;Samples;Min_cycle;Max_cycle;Signal;HPM_P1;HPM_P2
2022/09/04 00:00:33;;;;;;;8.10;5.40;;;;;;;;;;110421;1251;33621;-34
2022/09/04 00:03:25;;;;;;;8.40;6.00;;;;;;;;;;110440;1254;35353;-34
2022/09/04 00:05:58;;;;;;;7.20;5.40;;;;;;;;;;110450;1256;35134;-34
2022/09/04 00:08:39;;;;;;;8.30;6.00;;;;;;;;;;110457;1247;34921;-34
2022/09/04 00:11:20;;;;;;;8.40;5.70;;;;;;;;;;110453;1248;34983;-33
2022/09/04 00:13:57;;;;;;;9.10;5.80;;;;;;;;;;110455;1248;34788;-33
2022/09/04 00:16:34;;;;;;;9.10;7.10;;;;;;;;;;110430;1256;33571;-33
2022/09/04 00:19:10;;;;;;;7.90;5.60;;;;;;;;;;110447;1248;33342;-34
2022/09/04 00:21:46;;;;;;;8.40;6.00;;;;;;;;;;110458;1256;33208;-34
2022/09/04 00:24:19;;;;;;;7.40;5.40;;;;;;;;;;110427;1256;33555;-34
2022/09/04 00:26:53;;;;;;;8.90;6.20;;;;;;;;;;110437;1248;34125;-34
2022/09/04 00:29:35;;;;;;;7.90;5.70;;;;;;;;;;110459;1248;35210;-32
2022/09/04 00:32:14;;;;;;;9.20;6.70;;;;;;;;;;110433;1257;34800;-33
2022/09/04 00:34:58;;;;;;;8.80;6.20;;;;;;;;;;110453;1256;35699;-33
2022/09/04 00:37:33;;;;;;;8.20;6.00;;;;;;;;;;110452;1248;35369;-33
2022/09/04 00:40:08;;;;;;;8.20;6.00;;;;;;;;;;110437;1256;33170;-33
2022/09/04 00:43:02;;;;;;;8.50;6.60;;;;;;;;;;110468;1248;33624;-33
2022/09/04 00:45:36;;;;;;;;;;;;;;;;;;110472;1250;34915;-33
2022/09/04 00:48:20;;;;;;;8.30;5.90;;;;;;;;;;110461;1256;34298;-33
2022/09/04 00:51:10;;;;;;;8.10;6.20;;;;;;;;;;110455;1257;33650;-33
2022/09/04 00:54:00;;;;;;;9.40;6.30;;;;;;;;;;110485;1247;34613;-33
2022/09/04 00:57:04;;;;;;;8.30;6.30;;;;;;;;;;110421;1256;34046;-33
2022/09/04 00:59:45;;;;;;;8.40;6.60;;;;;;;;;;110456;1256;33854;-33
2022/09/04 01:02:25;;;;;;;10.50;6.50;;;;;;;;;;110443;1256;34012;-33
2022/09/04 01:05:03;;;;;;;8.80;6.70;;;;;;;;;;110465;1256;35535;-33
2022/09/04 01:07:44;;;;;;;9.00;6.60;;;;;;;;;;110451;1248;33146;-33
2022/09/04 01:10:35;;;;;;;8.50;6.40;;;;;;;;;;110446;1248;33688;-34
2022/09/04 01:13:11;;;;;;;10.70;6.70;;;;;;;;;;110473;1256;34182;-34
2022/09/04 01:15:49;;;;;;;9.30;6.30;;;;;;;;;;110419;1256;34924;-34
2022/09/04 01:18:24;;;;;;;8.80;6.40;;;;;;;;;;110439;1256;35065;-34
2022/09/04 01:21:06;;;;;;;9.30;6.60;;;;;;;;;;110444;1248;35447;-34
2022/09/04 01:24:08;;;;;;;9.10;6.90;;;;;;;;;;110427;1249;33265;-34
2022/09/04 01:26:49;;;;;;;8.50;6.30;;;;;;;;;;110450;1248;33134;-34
2022/09/04 01:29:39;;;;;;;9.00;6.80;;;;;;;;;;110452;1254;33265;-34
2022/09/04 01:32:18;;;;;;;8.50;6.40;;;;;;;;;;110472;1256;35086;-34
2022/09/04 01:34:58;;;;;;;9.00;6.50;;;;;;;;;;110426;1248;35061;-34
2022/09/04 01:37:41;;;;;;;9.70;6.20;;;;;;;;;;110423;1257;35033;-34
2022/09/04 01:40:26;;;;;;;9.00;6.80;;;;;;;;;;110445;1256;34988;-34
2022/09/04 01:43:01;;;;;;;8.80;6.20;;;;;;;;;;110485;1256;35116;-34
2022/09/04 01:45:42;;;;;;;9.10;6.90;;;;;;;;;;110462;1255;35284;-34
2022/09/04 01:48:15;;;;;;;8.90;6.90;;;;;;;;;;110480;1248;35208;-34
2022/09/04 01:50:49;;;;;;;9.40;7.10;;;;;;;;;;110446;1247;34793;-34
2022/09/04 01:53:25;;;;;;;12.50;7.40;;;;;;;;;;110464;1247;35083;-34
2022/09/04 01:56:02;;;;;;;9.30;6.90;;;;;;;;;;110432;1256;35740;-34
2022/09/04 01:58:41;;;;;;;9.50;6.80;;;;;;;;;;110443;1256;35452;-34
2022/09/04 02:01:16;;;;;;;9.00;6.20;;;;;;;;;;110436;1251;35750;-34
2022/09/04 02:03:52;;;;;;;8.90;6.70;;;;;;;;;;110451;1256;33544;-34
2022/09/04 02:06:31;;;;;;;9.20;6.70;;;;;;;;;;110432;1247;34064;-34
2022/09/04 02:09:19;;;;;;;9.00;6.90;;;;;;;;;;110450;1256;35449;-34
2022/09/04 02:11:58;;;;;;;8.40;6.60;;;;;;;;;;110455;1256;35642;-34
2022/09/04 02:14:41;;;;;;;9.40;6.60;;;;;;;;;;110445;1255;33171;-34
2022/09/04 02:17:18;;;;;;;8.60;6.60;;;;;;;;;;110458;1250;33350;-34
2022/09/04 02:20:02;;;;;;;8.50;6.40;;;;;;;;;;110466;1247;34824;-34
2022/09/04 02:22:42;;;;;;;8.30;6.60;;;;;;;;;;110497;1255;34025;-34
2022/09/04 02:25:23;;;;;;;10.30;6.90;;;;;;;;;;110458;1256;34091;-34
2022/09/04 02:28:04;;;;;;;9.50;6.90;;;;;;;;;;110469;1247;34221;-34
2022/09/04 02:30:42;;;;;;;9.70;7.00;;;;;;;;;;110453;1250;35162;-34
2022/09/04 02:33:19;;;;;;;9.90;7.10;;;;;;;;;;110481;1256;33931;-34
2022/09/04 02:35:55;;;;;;;9.50;7.20;;;;;;;;;;110464;1256;35264;-34
2022/09/04 02:38:31;;;;;;;8.90;6.70;;;;;;;;;;110471;1254;35211;-34
2022/09/04 02:41:11;;;;;;;10.00;7.80;;;;;;;;;;110476;1255;34570;-34
2022/09/04 02:44:00;;;;;;;10.00;6.90;;;;;;;;;;110491;1257;35606;-34
2022/09/04 02:46:36;;;;;;;8.70;6.80;;;;;;;;;;110477;1248;33623;-34
2022/09/04 02:49:14;;;;;;;9.50;7.50;;;;;;;;;;110434;1255;33413;-34
2022/09/04 02:52:01;;;;;;;10.90;7.50;;;;;;;;;;110464;1248;34755;-34
2022/09/04 02:54:44;;;;;;;10.30;7.30;;;;;;;;;;110469;1250;33576;-34
2022/09/04 02:57:28;;;;;;;10.20;7.50;;;;;;;;;;110433;1248;33773;-34
2022/09/04 03:00:07;;;;;;;9.60;7.20;;;;;;;;;;110429;1256;35251;-34
2022/09/04 03:02:42;;;;;;;10.50;7.00;;;;;;;;;;110448;1256;35567;-34
2022/09/04 03:05:19;;;;;;;9.10;7.20;;;;;;;;;;110476;1254;35096;-34
2022/09/04 03:07:55;;;;;;;9.60;7.50;;;;;;;;;;110435;1248;33235;-34
2022/09/04 03:10:29;;;;;;;9.50;6.60;;;;;;;;;;110466;1254;34781;-33
2022/09/04 03:13:10;;;;;;;10.20;7.00;;;;;;;;;;110485;1247;34773;-33
2022/09/04 03:15:46;;;;;;;9.70;7.10;;;;;;;;;;110453;1255;35714;-33
2022/09/04 03:18:21;;;;;;;10.20;7.30;;;;;;;;;;110448;1255;33338;-32
2022/09/04 03:20:58;;;;;;;8.60;7.00;;;;;;;;;;110460;1247;33159;-33
2022/09/04 03:23:35;;;;;;;9.90;7.40;;;;;;;;;;110457;1247;33650;-33
2022/09/04 03:26:21;;;;;;;9.80;7.10;;;;;;;;;;110448;1250;33246;-33
2022/09/04 03:29:01;;;;;;;10.90;7.70;;;;;;;;;;110442;1255;35110;-33
2022/09/04 03:31:38;;;;;;;9.20;6.90;;;;;;;;;;110429;1256;35593;-33
2022/09/04 03:34:22;;;;;;;10.50;7.40;;;;;;;;;;110456;1250;33216;-34
2022/09/04 03:37:15;;;;;;;12.70;7.60;;;;;;;;;;110483;1255;34989;-34
2022/09/04 03:39:53;;;;;;;9.20;6.90;;;;;;;;;;110473;1247;34794;-33
2022/09/04 03:42:32;;;;;;;9.70;7.20;;;;;;;;;;110448;1255;33826;-33
2022/09/04 03:45:16;;;;;;;9.30;7.10;;;;;;;;;;110444;1255;35168;-33
2022/09/04 03:47:58;;;;;;;10.90;7.50;;;;;;;;;;110464;1248;34144;-33
2022/09/04 03:50:37;;;;;;;10.20;7.20;;;;;;;;;;110440;1248;35059;-33
2022/09/04 03:53:14;;;;;;;10.60;7.20;;;;;;;;;;110461;1255;33577;-33
2022/09/04 03:56:05;;;;;;;9.60;7.50;;;;;;;;;;110439;1255;33534;-33
2022/09/04 03:58:43;;;;;;;10.40;7.70;;;;;;;;;;110434;1256;34784;-33
2022/09/04 04:01:20;;;;;;;9.40;6.60;;;;;;;;;;110428;1255;34054;-33
2022/09/04 04:04:07;;;;;;;10.70;7.70;;;;;;;;;;110447;1247;34027;-33
2022/09/04 04:06:44;;;;;;;10.80;7.50;;;;;;;;;;110471;1247;34624;-33
2022/09/04 04:09:37;;;;;;;10.80;7.80;;;;;;;;;;110446;1248;34790;-33
2022/09/04 04:12:26;;;;;;;10.70;7.30;;;;;;;;;;110444;1255;33223;-33
2022/09/04 04:15:05;;;;;;;9.60;7.30;;;;;;;;;;110470;1247;34383;-33
2022/09/04 04:17:53;;;;;;;10.20;7.30;;;;;;;;;;110457;1248;33172;-33
2022/09/04 04:20:35;;;;;;;9.10;7.00;;;;;;;;;;110485;1247;34694;-33
2022/09/04 04:23:49;;;;;;;9.80;7.20;;;;;;;;;;110449;1248;34708;-33
2022/09/04 04:26:27;;;;;;;9.60;7.00;;;;;;;;;;110470;1247;33342;-33
2022/09/04 04:29:24;;;;;;;10.40;7.20;;;;;;;;;;110438;1250;33229;-33
2022/09/04 04:32:12;;;;;;;10.50;7.20;;;;;;;;;;110444;1248;35836;-32
2022/09/04 04:34:52;;;;;;;9.30;6.90;;;;;;;;;;110483;1250;34336;-34
2022/09/04 04:37:37;;;;;;;9.30;6.70;;;;;;;;;;110480;1247;35283;-34
2022/09/04 04:40:15;;;;;;;8.50;6.80;;;;;;;;;;110492;1247;33466;-33
2022/09/04 04:42:52;;;;;;;9.70;7.10;;;;;;;;;;110443;1250;33812;-33
2022/09/04 04:48:48;;;;;;;9.00;7.10;;;;;;;;;;110464;1250;33738;-33
2022/09/04 04:51:39;;;;;;;9.40;7.10;;;;;;;;;;110474;1256;34288;-33
2022/09/04 04:54:25;;;;;;;9.60;7.10;;;;;;;;;;110471;1256;34192;-33
2022/09/04 04:57:02;;;;;;;8.60;6.90;;;;;;;;;;110453;1247;33700;-33
2022/09/04 04:59:42;;;;;;;10.00;7.10;;;;;;;;;;110430;1247;35135;-33
2022/09/04 05:02:20;;;;;;;8.40;6.40;;;;;;;;;;110474;1247;34938;-33
2022/09/04 05:04:56;;;;;;;8.80;6.40;;;;;;;;;;110470;1255;35012;-35
2022/09/04 05:07:36;;;;;;;9.50;6.50;;;;;;;;;;110487;1247;35428;-35
2022/09/04 05:10:16;;;;;;;9.50;6.70;;;;;;;;;;110446;1256;33683;-34
2022/09/04 05:13:14;;;;;;;8.10;6.30;;;;;;;;;;110121;1247;440015;-34
2022/09/04 05:15:49;;;;;;;8.20;6.30;;;;;;;;;;110358;1253;33686;-34
2022/09/04 05:18:25;;;;;;;8.80;6.80;;;;;;;;;;110445;1255;33402;-34
2022/09/04 05:20:59;;;;;;;8.90;6.60;;;;;;;;;;110445;1247;34861;-34
2022/09/04 05:23:37;;;;;;;8.60;7.00;;;;;;;;;;110467;1255;33572;-34
2022/09/04 05:26:19;;;;;;;8.60;6.40;;;;;;;;;;110450;1248;35369;-34
2022/09/04 05:28:56;;;;;;;8.50;6.50;;;;;;;;;;110426;1247;33781;-34
2022/09/04 05:31:36;;;;;;;8.20;6.10;;;;;;;;;;110452;1255;34247;-34
2022/09/04 05:34:11;;;;;;;8.80;6.70;;;;;;;;;;110420;1255;35237;-34
2022/09/04 05:36:56;;;;;;;8.40;6.10;;;;;;;;;;110448;1249;35695;-34
2022/09/04 05:39:30;;;;;;;9.90;6.70;;;;;;;;;;110454;1248;35635;-34
2022/09/04 05:42:24;;;;;;;8.80;6.60;;;;;;;;;;110455;1257;34576;-34
2022/09/04 05:45:01;;;;;;;8.90;6.40;;;;;;;;;;110450;1248;35011;-34
2022/09/04 05:47:41;;;;;;;7.40;6.00;;;;;;;;;;110472;1256;34716;-34
2022/09/04 05:50:27;;;;;;;9.10;6.80;;;;;;;;;;110422;1249;35642;-34
2022/09/04 05:53:15;;;;;;;9.40;6.60;;;;;;;;;;110428;1250;33230;-34
2022/09/04 05:56:16;;;;;;;8.00;6.10;;;;;;;;;;110450;1248;33634;-34
2022/09/04 05:59:11;;;;;;;8.90;6.50;;;;;;;;;;110493;1247;33608;-34
2022/09/04 06:02:04;;;;;;;9.40;6.70;;;;;;;;;;110436;1256;35587;-34
2022/09/04 06:04:50;;;;;;;8.30;6.70;;;;;;;;;;110427;1247;35546;-34
2022/09/04 06:07:27;;;;;;;8.70;6.70;;;;;;;;;;110452;1247;33264;-34
2022/09/04 06:10:03;;;;;;;8.90;6.80;;;;;;;;;;110446;1255;34887;-34
2022/09/04 06:12:55;;;;;;;8.60;6.20;;;;;;;;;;110450;1256;34998;-34
2022/09/04 06:15:36;;;;;;;8.60;6.80;;;;;;;;;;110172;1256;34967;-34
2022/09/04 06:18:25;;;;;;;9.50;6.50;;;;;;;;;;110429;1247;34485;-34
2022/09/04 06:21:24;;;;;;;8.70;6.50;;;;;;;;;;110432;1247;35075;-34
2022/09/04 06:24:16;;;;;;;10.80;6.30;;;;;;;;;;110438;1255;35088;-34
2022/09/04 06:27:14;;;;;;;8.30;6.40;;;;;;;;;;110435;1255;34847;-34
2022/09/04 06:29:55;;;;;;;7.90;6.30;;;;;;;;;;110403;1247;34929;-34
2022/09/04 06:32:50;;;;;;;9.20;6.80;;;;;;;;;;110445;1248;34806;-34
2022/09/04 06:35:31;;;;;;;9.40;6.50;;;;;;;;;;110446;1249;34899;-34
2022/09/04 06:38:21;;;;;;;9.10;6.40;;;;;;;;;;110435;1250;33304;-34
2022/09/04 06:41:07;;;;;;;9.30;6.40;;;;;;;;;;110453;1255;35588;-34
2022/09/04 06:43:45;;;;;;;9.30;6.90;;;;;;;;;;110445;1256;34992;-34
2022/09/04 06:46:22;;;;;;;9.20;7.00;;;;;;;;;;110413;1250;33144;-34
2022/09/04 06:49:00;;;;;;;8.60;6.60;;;;;;;;;;110435;1247;33243;-34
2022/09/04 06:51:45;;;;;;;8.90;6.50;;;;;;;;;;110478;1250;34803;-34
2022/09/04 06:54:35;;;;;;;8.60;6.30;;;;;;;;;;110462;1255;34072;-34
2022/09/04 06:57:21;;;;;;;9.10;6.10;;;;;;;;;;110451;1255;34662;-34
2022/09/04 07:00:02;;;;;;;8.00;6.20;;;;;;;;;;110477;1250;34794;-34
2022/09/04 07:03:13;;;;;;;9.60;6.00;;;;;;;;;;110431;1249;33929;-34
2022/09/04 07:05:52;;;;;;;9.40;6.70;;;;;;;;;;110404;1247;34774;-34
2022/09/04 07:08:32;;;;;;;9.00;6.40;;;;;;;;;;110452;1255;35141;-34
2022/09/04 07:11:12;;;;;;;9.70;6.90;;;;;;;;;;110440;1255;34985;-34
2022/09/04 07:14:15;;;;;;;7.90;5.70;;;;;;;;;;110479;1250;34030;-34
2022/09/04 07:16:54;;;;;;;10.50;6.50;;;;;;;;;;110455;1250;35302;-34
2022/09/04 07:19:54;;;;;;;8.30;5.90;;;;;;;;;;110447;1251;35638;-34
2022/09/04 07:22:34;;;;;;;8.90;5.90;;;;;;;;;;110427;1255;33150;-34
2022/09/04 07:25:22;;;;;;;9.30;5.80;;;;;;;;;;110452;1248;33758;-34
2022/09/04 07:28:11;;;;;;;8.10;5.80;;;;;;;;;;110463;1247;33782;-34
2022/09/04 07:30:49;;;;;;;9.70;5.80;;;;;;;;;;110468;1256;34746;-34
2022/09/04 07:33:24;;;;;;;8.50;5.70;;;;;;;;;;110456;1248;33586;-34
2022/09/04 07:36:06;;;;;;;7.90;6.20;;;;;;;;;;110468;1256;35004;-34
2022/09/04 07:38:44;;;;;;;9.00;6.10;;;;;;;;;;110435;1255;36330;-34
2022/09/04 07:41:21;;;;;;;8.60;5.90;;;;;;;;;;110447;1250;34767;-34
2022/09/04 07:44:02;;;;;;;9.80;5.90;;;;;;;;;;110447;1247;33567;-34
2022/09/04 07:46:43;;;;;;;7.80;5.70;;;;;;;;;;110440;1256;34697;-34
2022/09/04 07:49:22;;;;;;;7.70;5.30;;;;;;;;;;110437;1254;34057;-34
2022/09/04 07:51:57;;;;;;;6.90;5.30;;;;;;;;;;110352;1256;34193;-34
2022/09/04 07:54:55;;;;;;;7.30;5.50;;;;;;;;;;110450;1256;35027;-34
2022/09/04 07:57:39;;;;;;;7.90;5.40;;;;;;;;;;110434;1250;34912;-34
2022/09/04 08:00:16;;;;;;;7.10;5.00;;;;;;;;;;110450;1255;35182;-34
2022/09/04 08:03:25;;;;;;;6.90;5.20;;;;;;;;;;110461;1255;33811;-34
2022/09/04 08:06:00;;;;;;;7.00;5.20;;;;;;;;;;110401;1255;34064;-34
2022/09/04 08:08:58;;;;;;;7.80;5.50;;;;;;;;;;110470;1247;35593;-34
2022/09/04 08:11:44;;;;;;;8.30;5.40;;;;;;;;;;110449;1250;35472;-34
2022/09/04 08:14:21;;;;;;;6.70;5.10;;;;;;;;;;110453;1248;35033;-34
2022/09/04 08:20:02;;;;;;;7.40;5.40;;;;;;;;;;107067;1292;569660;-34
2022/09/04 08:22:41;;;;;;;7.90;5.40;;;;;;;;;;110017;1254;33535;-34
2022/09/04 08:25:19;;;;;;;7.70;5.10;;;;;;;;;;110011;1254;34784;-34
2022/09/04 08:28:05;;;;;;;7.50;5.40;;;;;;;;;;110033;1254;34524;-34
2022/09/04 08:30:43;;;;;;;8.90;5.10;;;;;;;;;;110033;1254;33965;-34
2022/09/04 08:33:36;;;;;;;7.30;5.30;;;;;;;;;;109871;1257;474358;-34
2022/09/04 08:36:15;;;;;;;7.50;5.50;;;;;;;;;;110339;1251;32937;-34
2022/09/04 08:39:03;;;;;;;7.20;5.50;;;;;;;;;;110368;1256;33182;-34
2022/09/04 08:42:12;;;;;;;10.20;5.90;;;;;;;;;;110320;1257;33278;-34
2022/09/04 08:45:19;;;;;;;6.80;5.60;;;;;;;;;;110343;1256;33573;-34
2022/09/04 08:48:22;;;;;;;8.00;5.90;;;;;;;;;;110392;1256;34236;-34
2022/09/04 08:51:12;;;;;;;7.90;5.40;;;;;;;;;;110354;1257;35341;-34
2022/09/04 08:54:07;;;;;;;7.70;5.60;;;;;;;;;;110312;1257;35030;-34
2022/09/04 08:56:42;;;;;;;7.80;6.10;;;;;;;;;;110332;1251;34695;-34
2022/09/04 08:59:44;;;;;;;10.70;5.90;;;;;;;;;;110323;1256;33659;-34
2022/09/04 09:02:48;;;;;;;7.90;6.10;;;;;;;;;;110356;1256;34595;-34
2022/09/04 09:05:42;;;;;;;9.00;6.20;;;;;;;;;;110307;1256;33118;-34
2022/09/04 09:08:32;;;;;;;8.40;6.30;;;;;;;;;;110222;1251;34291;-34
2022/09/04 09:11:18;;;;;;;8.00;5.50;;;;;;;;;;110198;1251;33391;-35
2022/09/04 09:14:23;;;;;;;10.30;6.20;;;;;;;;;;110291;1251;34806;-33
2022/09/04 09:17:11;;;;;;;8.50;5.80;;;;;;;;;;110290;1257;34831;-34
2022/09/04 09:19:51;;;;;;;8.60;5.40;;;;;;;;;;110300;1257;33683;-34
2022/09/04 09:22:46;;;;;;;8.70;5.50;;;;;;;;;;110321;1251;34022;-35
2022/09/04 09:25:26;;;;;;;8.90;5.80;;;;;;;;;;110268;1254;33198;-34
2022/09/04 09:28:27;;;;;;;7.90;5.80;;;;;;;;;;110142;1257;34110;-34
2022/09/04 09:31:15;;;;;;;7.00;5.00;;;;;;;;;;110764;1257;34812;-34
2022/09/04 09:34:17;;;;;;;8.30;5.00;;;;;;;;;;111179;1250;32490;-34
2022/09/04 09:37:24;;;;;;;9.30;5.30;;;;;;;;;;110105;1251;34969;-34
2022/09/04 09:40:35;;;;;;;7.50;4.90;;;;;;;;;;109865;1251;33861;-34
2022/09/04 09:43:30;;;;;;;7.70;5.20;;;;;;;;;;109941;1257;33158;-34
2022/09/04 09:46:37;;;;;;;8.10;4.80;;;;;;;;;;110316;1257;34668;-34
2022/09/04 09:49:35;;;;;;;6.80;5.00;;;;;;;;;;109978;1257;33637;-34
2022/09/04 09:52:26;;;;;;;7.40;4.80;;;;;;;;;;110301;1251;34748;-35
2022/09/04 09:55:17;;;;;;;7.20;4.60;;;;;;;;;;110314;1254;34555;-34
2022/09/04 09:58:34;;;;;;;6.80;4.50;;;;;;;;;;110313;1251;34877;-33
2022/09/04 10:01:23;;;;;;;6.70;4.90;;;;;;;;;;109643;1264;34193;-33
2022/09/04 10:04:17;;;;;;;7.10;4.90;;;;;;;;;;109693;1264;33229;-33
2022/09/04 10:07:09;;;;;;;7.20;4.40;;;;;;;;;;110195;1257;34964;-33
2022/09/04 10:10:08;;;;;;;7.70;5.20;;;;;;;;;;110326;1257;34861;-33
2022/09/04 10:13:17;;;;;;;7.40;5.10;;;;;;;;;;110296;1251;34809;-33
2022/09/04 10:16:04;;;;;;;6.00;4.60;;;;;;;;;;110149;1257;33061;-33
2022/09/04 10:19:15;;;;;;;6.60;5.00;;;;;;;;;;110316;1254;31810;-33
2022/09/04 10:22:13;;;;;;;6.20;4.80;;;;;;;;;;110352;1254;34166;-34
2022/09/04 10:25:09;;;;;;;6.50;5.00;;;;;;;;;;110326;1251;33164;-34
2022/09/04 10:27:57;;;;;;;7.40;4.50;;;;;;;;;;110326;1257;35446;-34
2022/09/04 10:30:32;;;;;;;7.20;5.00;;;;;;;;;;110176;1257;34967;-34
2022/09/04 10:33:24;;;;;;;6.60;4.60;;;;;;;;;;110297;1257;33129;-34
2022/09/04 10:36:18;;;;;;;6.90;4.30;;;;;;;;;;110316;1254;34963;-34
2022/09/04 10:42:05;;;;;;;7.00;4.80;;;;;;;;;;110307;1257;33125;-34
2022/09/04 10:44:51;;;;;;;6.90;5.30;;;;;;;;;;110299;1250;33700;-34
2022/09/04 10:47:33;;;;;;;7.00;5.30;;;;;;;;;;110365;1254;33156;-35
2022/09/04 10:50:17;;;;;;;6.30;4.70;;;;;;;;;;110331;1251;33586;-35
2022/09/04 10:53:24;;;;;;;6.80;5.00;;;;;;;;;;110339;1257;34476;-35
2022/09/04 10:56:08;;;;;;;7.30;4.80;;;;;;;;;;110338;1251;33544;-35
2022/09/04 10:58:57;;;;;;;5.90;5.00;;;;;;;;;;110320;1251;35277;-35
2022/09/04 11:01:55;;;;;;;7.60;5.20;;;;;;;;;;110332;1257;35014;-35
2022/09/04 11:05:01;;;;;;;7.20;5.00;;;;;;;;;;110677;1254;34805;-35
2022/09/04 11:07:50;;;;;;;6.90;5.00;;;;;;;;;;110485;1253;33579;-34
2022/09/04 11:10:28;;;;;;;6.40;5.20;;;;;;;;;;110700;1251;34904;-34
2022/09/04 11:13:48;;;;;;;6.80;5.60;;;;;;;;;;110668;1253;34088;-35
2022/09/04 11:16:58;;;;;;;6.60;5.50;;;;;;;;;;110628;1253;34865;-34
2022/09/04 11:19:59;;;;;;;8.30;5.60;;;;;;;;;;110469;1253;33165;-34
2022/09/04 11:22:57;;;;;;;7.80;6.00;;;;;;;;;;110490;1244;33418;-34
2022/09/04 11:26:04;;;;;;;6.50;5.70;;;;;;;;;;110638;1253;34526;-34
2022/09/04 11:28:55;;;;;;;7.60;5.80;;;;;;;;;;110689;1253;32478;-34
2022/09/04 11:31:47;;;;;;;8.40;5.80;;;;;;;;;;111030;1249;34884;-34
2022/09/04 11:34:54;;;;;;;7.50;5.80;;;;;;;;;;111000;1241;34092;-34
2022/09/04 11:38:02;;;;;;;7.90;5.90;;;;;;;;;;111040;1249;33131;-34
2022/09/04 11:41:07;;;;;;;8.40;6.10;;;;;;;;;;110485;1256;34109;-34
2022/09/04 11:43:59;;;;;;;7.30;6.20;;;;;;;;;;110415;1247;34767;-34
2022/09/04 11:46:54;;;;;;;6.80;5.80;;;;;;;;;;110925;1248;34927;-34
2022/09/04 11:49:39;;;;;;;7.50;5.70;;;;;;;;;;110987;1248;34144;-34
2022/09/04 11:52:25;;;;;;;8.80;5.70;;;;;;;;;;110996;1248;34091;-33
2022/09/04 11:55:09;;;;;;;8.50;5.80;;;;;;;;;;110994;1248;33659;-33
2022/09/04 11:57:52;;;;;;;6.80;5.90;;;;;;;;;;111000;1241;34265;-33
2022/09/04 12:00:23;;;;;;;6.50;5.40;;;;;;;;;;111008;1241;33459;-33
2022/09/04 12:03:48;;;;;;;6.80;6.00;;;;;;;;;;110995;1248;34873;-33
2022/09/04 12:06:43;;;;;;;8.50;6.00;;;;;;;;;;110786;1247;33203;-33
2022/09/04 12:09:35;;;;;;;8.20;6.50;;;;;;;;;;110992;1248;33255;-33
2022/09/04 12:12:28;;;;;;;7.50;6.10;;;;;;;;;;110971;1248;34085;-33
2022/09/04 12:15:30;;;;;;;7.50;5.90;;;;;;;;;;110964;1243;34127;-33
2022/09/04 12:18:32;;;;;;;7.10;6.10;;;;;;;;;;111000;1248;33573;-33
2022/09/04 12:21:20;;;;;;;8.70;6.00;;;;;;;;;;110769;1247;35175;-33
2022/09/04 12:24:21;;;;;;;7.50;6.20;;;;;;;;;;110894;1247;34588;-33
2022/09/04 12:27:13;;;;;;;7.30;5.90;;;;;;;;;;110734;1248;33662;-33
2022/09/04 12:30:09;;;;;;;8.60;6.40;;;;;;;;;;110985;1248;34494;-33
2022/09/04 12:32:57;;;;;;;8.40;6.60;;;;;;;;;;110992;1241;34412;-34
2022/09/04 12:35:42;;;;;;;8.20;6.10;;;;;;;;;;110996;1241;34468;-34
2022/09/04 12:38:24;;;;;;;7.80;6.30;;;;;;;;;;110970;1242;34385;-34
2022/09/04 12:41:01;;;;;;;8.90;6.90;;;;;;;;;;110998;1248;34972;-34
2022/09/04 12:43:41;;;;;;;8.40;6.20;;;;;;;;;;110999;1241;33967;-34
2022/09/04 12:46:22;;;;;;;7.80;6.00;;;;;;;;;;110991;1248;34259;-34
2022/09/04 12:49:04;;;;;;;9.40;6.60;;;;;;;;;;110967;1248;33843;-34
2022/09/04 12:51:42;;;;;;;7.60;6.20;;;;;;;;;;111022;1248;33451;-34
2022/09/04 12:54:23;;;;;;;8.00;6.40;;;;;;;;;;110984;1248;34982;-34
2022/09/04 12:57:05;;;;;;;9.20;6.40;;;;;;;;;;111016;1241;35187;-34
2022/09/04 12:59:48;;;;;;;7.70;6.30;;;;;;;;;;111013;1241;33130;-34
2022/09/04 13:02:31;;;;;;;8.70;6.30;;;;;;;;;;111005;1241;33614;-34
2022/09/04 13:05:06;;;;;;;9.30;6.10;;;;;;;;;;110973;1248;34056;-34
2022/09/04 13:07:49;;;;;;;8.50;6.60;;;;;;;;;;110983;1248;33522;-34
2022/09/04 13:10:31;;;;;;;8.50;6.30;;;;;;;;;;110999;1248;34784;-34
2022/09/04 13:13:13;;;;;;;7.70;6.20;;;;;;;;;;110959;1248;35029;-34
2022/09/04 13:15:50;;;;;;;8.00;6.10;;;;;;;;;;111015;1248;34006;-34
2022/09/04 13:18:30;;;;;;;8.10;5.90;;;;;;;;;;110989;1248;34742;-34
2022/09/04 13:21:08;;;;;;;7.80;6.20;;;;;;;;;;111013;1248;34662;-34
2022/09/04 13:23:51;;;;;;;8.50;5.90;;;;;;;;;;110963;1248;34994;-34
2022/09/04 13:26:37;;;;;;;8.80;6.20;;;;;;;;;;110995;1248;35162;-34
2022/09/04 13:29:20;;;;;;;8.30;6.40;;;;;;;;;;110997;1241;33108;-34
2022/09/04 13:32:07;;;;;;;8.00;6.20;;;;;;;;;;110992;1248;34836;-34
2022/09/04 13:34:47;;;;;;;7.00;5.80;;;;;;;;;;111013;1241;33318;-34
2022/09/04 13:37:23;;;;;;;7.90;6.10;;;;;;;;;;111027;1245;34752;-34
2022/09/04 13:40:08;;;;;;;7.80;5.90;;;;;;;;;;111017;1241;35165;-34
2022/09/04 13:43:24;;;;;;;7.20;5.60;;;;;;;;;;110987;1248;33924;-34
2022/09/04 13:46:01;;;;;;;7.20;5.60;;;;;;;;;;110985;1248;35193;-34
2022/09/04 13:48:40;;;;;;;7.80;5.30;;;;;;;;;;111007;1248;34703;-34
2022/09/04 13:51:15;;;;;;;8.40;5.90;;;;;;;;;;111010;1241;34698;-34
2022/09/04 13:54:12;;;;;;;6.50;5.10;;;;;;;;;;111011;1241;33436;-34
2022/09/04 13:56:49;;;;;;;7.00;5.30;;;;;;;;;;111044;1240;33471;-34
2022/09/04 13:59:22;;;;;;;7.20;5.60;;;;;;;;;;111010;1248;34815;-34
2022/09/04 14:01:58;;;;;;;7.20;5.40;;;;;;;;;;110989;1248;33518;-34
2022/09/04 14:04:34;;;;;;;7.10;5.50;;;;;;;;;;110989;1248;32948;-34
2022/09/04 14:07:10;;;;;;;6.60;5.20;;;;;;;;;;111005;1241;34828;-34
2022/09/04 14:09:46;;;;;;;6.90;5.80;;;;;;;;;;110998;1241;33646;-34
2022/09/04 14:12:34;;;;;;;8.20;5.50;;;;;;;;;;110970;1248;33937;-34
2022/09/04 14:15:39;;;;;;;7.10;5.30;;;;;;;;;;110995;1240;33647;-34
2022/09/04 14:18:29;;;;;;;6.70;5.30;;;;;;;;;;110980;1240;35371;-34
2022/09/04 14:21:04;;;;;;;7.00;5.50;;;;;;;;;;110995;1241;33416;-34
2022/09/04 14:23:42;;;;;;;6.50;5.00;;;;;;;;;;111000;1240;34171;-34
2022/09/04 14:26:20;;;;;;;7.20;5.20;;;;;;;;;;110992;1248;34832;-34
2022/09/04 14:28:56;;;;;;;7.10;5.00;;;;;;;;;;110998;1241;35466;-34
2022/09/04 14:31:37;;;;;;;6.50;5.20;;;;;;;;;;110992;1248;35330;-34
2022/09/04 14:34:15;;;;;;;7.50;5.40;;;;;;;;;;111010;1248;34921;-34
2022/09/04 14:36:55;;;;;;;7.40;4.80;;;;;;;;;;111017;1242;34676;-34
2022/09/04 14:39:32;;;;;;;8.20;5.20;;;;;;;;;;111015;1241;34951;-34
2022/09/04 14:42:27;;;;;;;8.70;5.70;;;;;;;;;;110998;1248;34940;-34
2022/09/04 14:45:08;;;;;;;10.40;7.20;;;;;;;;;;111024;1240;34748;-34
2022/09/04 14:47:43;;;;;;;12.70;7.20;;;;;;;;;;111019;1248;34100;-34
2022/09/04 14:50:17;;;;;;;12.70;6.60;;;;;;;;;;111001;1248;34664;-34
2022/09/04 14:52:52;;;;;;;10.70;6.50;;;;;;;;;;110984;1248;34920;-34
2022/09/04 14:55:28;;;;;;;10.00;5.70;;;;;;;;;;111001;1248;33449;-34
2022/09/04 14:58:03;;;;;;;8.60;5.90;;;;;;;;;;111023;1242;33544;-34
2022/09/04 15:00:53;;;;;;;9.20;5.40;;;;;;;;;;110983;1248;33525;-34
2022/09/04 15:03:28;;;;;;;9.10;6.00;;;;;;;;;;110992;1241;33249;-33
2022/09/04 15:06:00;;;;;;;8.70;5.90;;;;;;;;;;111017;1248;33073;-33
2022/09/04 15:08:32;;;;;;;9.70;5.50;;;;;;;;;;110993;1248;33201;-33
2022/09/04 15:11:08;;;;;;;9.10;5.70;;;;;;;;;;110979;1248;34137;-33
2022/09/04 15:13:50;;;;;;;8.20;5.80;;;;;;;;;;111006;1241;32936;-33
2022/09/04 15:16:45;;;;;;;8.80;6.10;;;;;;;;;;110974;1248;35071;-33
2022/09/04 15:19:29;;;;;;;9.10;6.10;;;;;;;;;;110981;1248;33592;-33
2022/09/04 15:22:03;;;;;;;;;;;;;;;;;;110990;1242;34710;-33
2022/09/04 15:24:38;;;;;;;7.50;5.00;;;;;;;;;;111011;1247;32734;-33
2022/09/04 15:27:16;;;;;;;8.70;5.70;;;;;;;;;;110986;1248;33942;-33
2022/09/04 15:30:05;;;;;;;9.30;5.70;;;;;;;;;;110980;1241;33184;-33
2022/09/04 15:32:40;;;;;;;8.00;5.30;;;;;;;;;;111010;1248;35343;-33
2022/09/04 15:35:24;;;;;;;9.50;5.50;;;;;;;;;;110994;1248;34705;-33
2022/09/04 15:38:07;;;;;;;7.90;5.40;;;;;;;;;;110998;1243;33101;-33
2022/09/04 15:40:44;;;;;;;8.50;5.60;;;;;;;;;;110999;1248;34120;-33
2022/09/04 15:43:22;;;;;;;9.10;5.70;;;;;;;;;;111022;1241;34056;-33
2022/09/04 15:45:59;;;;;;;7.20;5.30;;;;;;;;;;110980;1241;34839;-33
2022/09/04 15:48:51;;;;;;;8.80;5.30;;;;;;;;;;110971;1248;34832;-33
2022/09/04 15:51:27;;;;;;;8.70;5.10;;;;;;;;;;110998;1241;33541;-33
2022/09/04 15:54:22;;;;;;;8.80;5.60;;;;;;;;;;110994;1248;35291;-34
2022/09/04 15:57:02;;;;;;;7.00;4.90;;;;;;;;;;110982;1248;34159;-33
2022/09/04 15:59:43;;;;;;;9.90;5.70;;;;;;;;;;111018;1248;33115;-33
2022/09/04 16:02:23;;;;;;;7.40;5.60;;;;;;;;;;111012;1240;33846;-33
2022/09/04 16:05:02;;;;;;;7.80;5.50;;;;;;;;;;111012;1241;34790;-33
2022/09/04 16:07:39;;;;;;;7.80;5.20;;;;;;;;;;111003;1248;33365;-33
2022/09/04 16:10:16;;;;;;;8.30;5.30;;;;;;;;;;111011;1240;34741;-33
2022/09/04 16:12:56;;;;;;;8.90;5.20;;;;;;;;;;110974;1248;34238;-33
2022/09/04 16:15:31;;;;;;;9.10;5.50;;;;;;;;;;111023;1242;35081;-33
2022/09/04 16:18:14;;;;;;;7.10;5.00;;;;;;;;;;111011;1241;33599;-33
2022/09/04 16:20:50;;;;;;;7.50;5.60;;;;;;;;;;111001;1248;34742;-33